createdAt,value
2023-05-04T00:01:32.040Z,101505.28
2023-05-04T00:04:00.331Z,101500.19
2023-05-04T00:06:28.237Z,101500.28
2023-05-04T00:08:57.379Z,101499.56
2023-05-04T00:11:25.274Z,101501.41
2023-05-04T00:13:53.310Z,101500.53
2023-05-04T00:16:21.265Z,101502.41
2023-05-04T00:18:49.018Z,101504.25
2023-05-04T00:21:16.785Z,101504.38
2023-05-04T00:23:44.520Z,101500.28
2023-05-04T00:26:13.667Z,101493.56
2023-05-04T00:28:41.442Z,101498.91
2023-05-04T00:31:09.240Z,101499.97
2023-05-04T00:33:37.043Z,101487.16
2023-05-04T00:36:05.113Z,101492.44
2023-05-04T00:38:47.849Z,101486.56
2023-05-04T00:41:17.074Z,101485.81
2023-05-04T00:43:46.272Z,101486.09
2023-05-04T00:46:14.459Z,101485.16
2023-05-04T00:48:43.260Z,101476.53
2023-05-04T00:51:12.359Z,101471.34
2023-05-04T00:53:40.710Z,101470.63
2023-05-04T00:56:08.906Z,101468.97
2023-05-04T00:58:40.715Z,101459.56
2023-05-04T01:01:08.508Z,101466.44
2023-05-04T01:03:36.365Z,101453.47
2023-05-04T01:06:09.823Z,101464.75
2023-05-04T01:08:42.469Z,101458.81
2023-05-04T01:11:13.507Z,101458.94
2023-05-04T01:13:43.083Z,101454.78
2023-05-04T01:16:10.941Z,101438.47
2023-05-04T01:18:38.690Z,101442.97
2023-05-04T01:21:06.437Z,101437.84
2023-05-04T01:23:35.742Z,101443.09
2023-05-04T01:26:04.868Z,101425.16
2023-05-04T01:28:38.760Z,101435.56
2023-05-04T01:31:07.323Z,101437.34
2023-05-04T01:33:35.667Z,101436.59
2023-05-04T01:36:06.158Z,101434.00
2023-05-04T01:38:35.377Z,101431.56
2023-05-04T01:41:03.096Z,101426.44
2023-05-04T01:43:30.849Z,101434.09
2023-05-04T01:45:58.653Z,101432.53
2023-05-04T01:48:28.229Z,101444.56
2023-05-04T01:50:56.242Z,101435.91
2023-05-04T01:53:27.321Z,101442.94
2023-05-04T01:55:56.437Z,101441.38
2023-05-04T01:58:24.224Z,101423.09
2023-05-04T02:00:53.872Z,101423.19
2023-05-04T02:03:21.695Z,101428.38
2023-05-04T02:05:49.481Z,101430.06
2023-05-04T02:08:17.213Z,101425.78
2023-05-04T02:10:44.944Z,101428.31
2023-05-04T02:13:14.046Z,101426.59
2023-05-04T02:15:42.027Z,101431.84
2023-05-04T02:18:09.841Z,101430.13
2023-05-04T02:20:37.632Z,101428.44
2023-05-04T02:23:05.338Z,101418.81
2023-05-04T02:25:33.086Z,101431.91
2023-05-04T02:28:00.823Z,101430.97
2023-05-04T02:30:29.970Z,101426.69
2023-05-04T02:32:57.706Z,101427.63
2023-05-04T02:35:25.577Z,101416.41
2023-05-04T02:37:53.306Z,101419.72
2023-05-04T02:40:21.025Z,101412.78
2023-05-04T02:42:48.735Z,101412.78
2023-05-04T02:45:16.606Z,101418.78
2023-05-04T02:47:45.800Z,101411.88
2023-05-04T02:50:13.652Z,101416.19
2023-05-04T02:52:41.615Z,101414.47
2023-05-04T02:55:10.280Z,101415.22
2023-05-04T02:57:38.001Z,101405.81
2023-05-04T03:00:07.133Z,101399.81
2023-05-04T03:02:34.994Z,101400.09
2023-05-04T03:05:04.224Z,101404.19
2023-05-04T03:07:32.020Z,101396.47
2023-05-04T03:09:59.843Z,101398.28
2023-05-04T03:12:30.100Z,101396.56
2023-05-04T03:14:57.857Z,101394.00
2023-05-04T03:17:25.649Z,101390.63
2023-05-04T03:19:53.533Z,101389.78
2023-05-04T03:22:22.625Z,101397.31
2023-05-04T03:24:50.342Z,101397.16
2023-05-04T03:27:18.051Z,101387.03
2023-05-04T03:29:45.882Z,101392.22
2023-05-04T03:32:14.155Z,101387.13
2023-05-04T03:34:41.920Z,101387.25
2023-05-04T03:37:09.694Z,101384.66
2023-05-04T03:39:38.906Z,101381.25
2023-05-04T03:42:06.454Z,101396.16
2023-05-04T03:44:34.139Z,101395.22
2023-05-04T03:47:04.081Z,101392.56
2023-05-04T03:49:31.819Z,101385.81
2023-05-04T03:51:59.565Z,101392.69
2023-05-04T03:54:27.393Z,101389.38
2023-05-04T03:56:56.445Z,101382.41
2023-05-04T03:59:24.179Z,101391.03
2023-05-04T04:01:52.088Z,101384.16
2023-05-04T04:04:19.858Z,101386.75
2023-05-04T04:06:47.644Z,101391.13
2023-05-04T04:09:15.943Z,101393.78
2023-05-04T04:11:43.698Z,101388.59
2023-05-04T04:14:12.814Z,101389.47
2023-05-04T04:16:40.740Z,101389.44
2023-05-04T04:19:08.598Z,101377.28
2023-05-04T04:21:36.441Z,101385.13
2023-05-04T04:24:04.246Z,101381.66
2023-05-04T04:26:32.346Z,101380.84
2023-05-04T04:29:00.167Z,101374.78
2023-05-04T04:31:30.452Z,101385.06
2023-05-04T04:33:58.211Z,101382.50
2023-05-04T04:36:26.082Z,101373.03
2023-05-04T04:38:53.853Z,101380.69
2023-05-04T04:41:21.575Z,101383.31
2023-05-04T04:43:49.299Z,101381.53
2023-05-04T04:46:17.253Z,101389.34
2023-05-04T04:48:46.392Z,101379.06
2023-05-04T04:51:14.145Z,101370.50
2023-05-04T04:53:41.947Z,101369.63
2023-05-04T04:56:09.758Z,101369.63
2023-05-04T04:58:40.554Z,101373.16
2023-05-04T05:01:08.529Z,101364.53
2023-05-04T05:03:36.353Z,101362.72
2023-05-04T05:06:05.747Z,101358.25
2023-05-04T05:08:33.944Z,101364.09
2023-05-04T05:11:01.655Z,101368.25
2023-05-04T05:13:29.402Z,101368.09
2023-05-04T05:15:57.133Z,101370.38
2023-05-04T05:18:25.157Z,101357.16
2023-05-04T05:20:52.885Z,101354.97
2023-05-04T05:23:25.003Z,101352.72
2023-05-04T05:25:53.233Z,101362.59
2023-05-04T05:28:22.197Z,101356.16
2023-05-04T05:30:51.979Z,101354.84
2023-05-04T05:33:19.964Z,101348.25
2023-05-04T05:35:47.676Z,101345.25
2023-05-04T05:38:16.207Z,101342.34
2023-05-04T05:40:45.343Z,101342.50
2023-05-04T05:43:13.075Z,101336.94
2023-05-04T05:45:40.808Z,101332.16
2023-05-04T05:48:08.708Z,101336.00
2023-05-04T05:50:36.554Z,101333.97
2023-05-04T05:53:04.291Z,101342.25
2023-05-04T05:55:32.071Z,101336.25
2023-05-04T05:58:01.218Z,101332.69
2023-05-04T06:00:28.997Z,101330.00
2023-05-04T06:02:56.919Z,101330.78
2023-05-04T06:05:24.896Z,101331.50
2023-05-04T06:07:52.683Z,101319.03
2023-05-04T06:10:20.452Z,101327.34
2023-05-04T06:12:48.297Z,101319.91
2023-05-04T06:15:17.641Z,101322.22
2023-05-04T06:17:45.526Z,101321.13
2023-05-04T06:20:13.777Z,101324.31
2023-05-04T06:22:41.516Z,101324.19
2023-05-04T06:25:09.684Z,101322.38
2023-05-04T06:27:37.444Z,101318.66
2023-05-04T06:30:06.833Z,101320.13
2023-05-04T06:32:38.414Z,101326.78
2023-05-04T06:35:08.829Z,101327.47
2023-05-04T06:37:36.720Z,101318.28
2023-05-04T06:40:07.172Z,101322.09
2023-05-04T06:42:35.018Z,101313.00
2023-05-04T06:45:03.235Z,101316.13
2023-05-04T06:47:31.013Z,101315.56
2023-05-04T06:50:00.221Z,101301.00
2023-05-04T06:52:29.682Z,101307.28
2023-05-04T06:54:57.425Z,101308.50
2023-05-04T06:57:25.265Z,101301.75
2023-05-04T06:59:53.706Z,101305.41
2023-05-04T07:02:21.521Z,101311.63
2023-05-04T07:04:49.252Z,101299.97
2023-05-04T07:07:18.390Z,101299.25
2023-05-04T07:09:47.823Z,101297.56
2023-05-04T07:12:15.627Z,101300.78
2023-05-04T07:14:43.528Z,101283.69
2023-05-04T07:17:11.837Z,101292.56
2023-05-04T07:19:41.227Z,101289.16
2023-05-04T07:22:09.175Z,101288.94
2023-05-04T07:24:38.264Z,101285.94
2023-05-04T07:27:05.900Z,101280.78
2023-05-04T07:29:33.661Z,101280.09
2023-05-04T07:32:01.389Z,101282.31
2023-05-04T07:34:38.174Z,101285.00
2023-05-04T07:37:12.844Z,101281.47
2023-05-04T07:39:41.907Z,101276.41
2023-05-04T07:42:11.211Z,101284.50
2023-05-04T07:44:39.016Z,101274.03
2023-05-04T07:47:07.018Z,101273.94
2023-05-04T07:49:35.053Z,101270.69
2023-05-04T07:52:02.817Z,101259.22
2023-05-04T07:54:30.552Z,101249.63
2023-05-04T07:56:59.627Z,101250.75
2023-05-04T07:59:27.378Z,101239.84
2023-05-04T08:01:55.182Z,101237.50
2023-05-04T08:04:23.004Z,101226.38
2023-05-04T08:06:50.908Z,101234.28
2023-05-04T08:09:19.879Z,101224.34
2023-05-04T08:11:48.252Z,101228.31
2023-05-04T08:14:17.885Z,101227.91
2023-05-04T08:16:45.718Z,101216.94
2023-05-04T08:19:13.537Z,101224.78
2023-05-04T08:21:41.555Z,101218.78
2023-05-04T08:24:09.355Z,101208.09
2023-05-04T08:26:38.133Z,101215.91
2023-05-04T08:29:07.179Z,101207.41
2023-05-04T08:31:36.851Z,101209.91
2023-05-04T08:34:04.922Z,101203.88
2023-05-04T08:36:32.882Z,101208.81
2023-05-04T08:39:00.771Z,101205.34
2023-05-04T08:41:28.597Z,101196.75
2023-05-04T08:43:58.069Z,101197.31
2023-05-04T08:46:30.757Z,101201.91
2023-05-04T08:49:00.122Z,101196.31
2023-05-04T08:51:28.266Z,101195.84
2023-05-04T08:53:56.482Z,101196.84
2023-05-04T08:56:24.365Z,101188.75
2023-05-04T08:58:53.536Z,101192.69
2023-05-04T09:01:22.782Z,101197.72
2023-05-04T09:03:53.501Z,101193.53
2023-05-04T09:06:22.798Z,101193.63
2023-05-04T09:08:50.569Z,101184.88
2023-05-04T09:11:18.348Z,101189.88
2023-05-04T09:13:47.070Z,101191.53
2023-05-04T09:16:16.405Z,101181.75
2023-05-04T09:18:45.210Z,101176.56
2023-05-04T09:21:12.932Z,101187.69
2023-05-04T09:23:48.717Z,101180.41
2023-05-04T09:26:27.594Z,101178.91
2023-05-04T09:28:55.372Z,101163.91
2023-05-04T09:31:23.322Z,101164.81
2023-05-04T09:33:53.872Z,101153.91
2023-05-04T09:36:25.130Z,101156.09
2023-05-04T09:38:54.325Z,101160.69
2023-05-04T09:41:33.034Z,101155.88
2023-05-04T09:44:00.828Z,101149.06
2023-05-04T09:46:28.649Z,101144.44
2023-05-04T09:48:56.997Z,101147.81
2023-05-04T09:51:26.733Z,101140.81
2023-05-04T09:53:55.965Z,101149.84
2023-05-04T09:56:31.417Z,101148.72
2023-05-04T09:58:59.677Z,101139.84
2023-05-04T10:01:29.521Z,101136.50
2023-05-04T10:03:57.434Z,101125.91
2023-05-04T10:06:25.564Z,101124.78
2023-05-04T10:08:54.788Z,101123.66
2023-05-04T10:11:25.712Z,101122.41
2023-05-04T10:13:56.317Z,101114.16
2023-05-04T10:16:33.032Z,101111.03
2023-05-04T10:19:12.890Z,101102.31
2023-05-04T10:21:50.022Z,101107.03
2023-05-04T10:24:35.113Z,101108.88
2023-05-04T10:27:06.925Z,101104.63
2023-05-04T10:29:35.270Z,101092.50
2023-05-04T10:32:03.359Z,101088.22
2023-05-04T10:34:32.315Z,101094.38
2023-05-04T10:37:01.252Z,101080.63
2023-05-04T10:39:31.159Z,101076.97
2023-05-04T10:42:03.589Z,101065.84
2023-05-04T10:44:37.442Z,101066.94
2023-05-04T10:47:06.726Z,101065.38
2023-05-04T10:49:38.039Z,101059.09
2023-05-04T10:52:10.936Z,101063.00
2023-05-04T10:54:41.796Z,101050.00
2023-05-04T10:57:13.745Z,101044.22
2023-05-04T10:59:47.792Z,101041.06
2023-05-04T11:02:23.509Z,101035.81
2023-05-04T11:05:00.752Z,101033.91
2023-05-04T11:07:36.709Z,101031.00
2023-05-04T11:10:06.671Z,101020.16
2023-05-04T11:12:34.492Z,101022.63
2023-05-04T11:15:07.539Z,101025.69
2023-05-04T11:17:35.816Z,101013.84
2023-05-04T11:20:03.576Z,101023.72
2023-05-04T11:22:33.095Z,101021.88
2023-05-04T11:25:00.879Z,101005.75
2023-05-04T11:27:30.662Z,100998.69
2023-05-04T11:29:59.477Z,101002.91
2023-05-04T11:32:37.287Z,101009.06
2023-05-04T11:35:06.676Z,100999.50
2023-05-04T11:37:39.249Z,100991.72
2023-05-04T11:40:10.849Z,100981.63
2023-05-04T11:42:41.137Z,100976.53
2023-05-04T11:45:12.695Z,100958.41
2023-05-04T11:47:41.182Z,100962.00
2023-05-04T11:50:10.358Z,100963.13
2023-05-04T11:52:40.476Z,100952.91
2023-05-04T11:55:10.371Z,100947.91
2023-05-04T11:57:38.438Z,100950.00
2023-05-04T12:00:09.679Z,100947.28
2023-05-04T12:02:37.540Z,100941.53
2023-05-04T12:05:06.290Z,100949.38
2023-05-04T12:07:37.634Z,100946.41
2023-05-04T12:10:05.902Z,100944.19
2023-05-04T12:12:36.698Z,100931.06
2023-05-04T12:15:05.140Z,100933.38
2023-05-04T12:17:45.183Z,100930.13
2023-05-04T12:20:24.203Z,100920.25
2023-05-04T12:22:52.043Z,100927.22
2023-05-04T12:25:20.324Z,100906.09
2023-05-04T12:27:48.401Z,100907.75
2023-05-04T12:30:19.093Z,100908.03
2023-05-04T12:32:48.261Z,100903.88
2023-05-04T12:35:17.014Z,100906.44
2023-05-04T12:37:45.109Z,100908.53
2023-05-04T12:40:27.670Z,100893.53
2023-05-04T12:42:56.372Z,100901.53
2023-05-04T12:45:24.113Z,100891.88
2023-05-04T12:47:53.316Z,100882.44
2023-05-04T12:50:21.087Z,100882.06
2023-05-04T12:52:48.946Z,100878.63
2023-05-04T12:55:17.521Z,100875.88
2023-05-04T12:57:45.709Z,100880.63
2023-05-04T13:00:15.270Z,100870.56
2023-05-04T13:02:43.108Z,100860.75
2023-05-04T13:05:13.059Z,100866.06
2023-05-04T13:07:40.836Z,100862.25
2023-05-04T13:10:09.237Z,100856.91
2023-05-04T13:12:37.801Z,100857.44
2023-05-04T13:15:07.411Z,100841.63
2023-05-04T13:17:35.828Z,100831.75
2023-05-04T13:20:06.147Z,100827.59
2023-05-04T13:22:37.465Z,100829.94
2023-05-04T13:25:06.485Z,100825.78
2023-05-04T13:27:34.545Z,100814.41
2023-05-04T13:30:03.860Z,100819.91
2023-05-04T13:32:32.221Z,100803.94
2023-05-04T13:35:00.115Z,100803.25
2023-05-04T13:37:27.897Z,100810.28
2023-05-04T13:39:57.941Z,100803.59
2023-05-04T13:42:25.739Z,100794.25
2023-05-04T13:44:53.478Z,100793.94
2023-05-04T13:47:21.275Z,100783.38
2023-05-04T13:49:49.169Z,100788.81
2023-05-04T13:52:16.930Z,100783.81
2023-05-04T13:54:44.697Z,100789.66
2023-05-04T13:57:13.823Z,100789.13
2023-05-04T13:59:48.824Z,100781.28
2023-05-04T14:02:26.409Z,100781.69
2023-05-04T14:04:54.168Z,100776.56
2023-05-04T14:07:22.176Z,100766.09
2023-05-04T14:09:49.897Z,100763.53
2023-05-04T14:12:20.107Z,100766.13
2023-05-04T14:14:47.858Z,100755.25
2023-05-04T14:17:15.657Z,100758.09
2023-05-04T14:19:43.399Z,100755.56
2023-05-04T14:22:11.170Z,100756.47
2023-05-04T14:24:39.025Z,100752.47
2023-05-04T14:27:07.185Z,100742.63
2023-05-04T14:29:36.930Z,100741.06
2023-05-04T14:32:04.892Z,100747.34
2023-05-04T14:34:33.202Z,100737.06
2023-05-04T14:37:02.930Z,100722.56
2023-05-04T14:39:30.765Z,100714.34
2023-05-04T14:41:58.536Z,100708.00
2023-05-04T14:44:28.630Z,100711.81
2023-05-04T14:46:58.113Z,100701.44
2023-05-04T14:49:36.806Z,100700.22
2023-05-04T14:52:08.669Z,100704.63
2023-05-04T14:54:36.445Z,100694.81
2023-05-04T14:57:04.703Z,100685.88
2023-05-04T14:59:32.450Z,100693.88
2023-05-04T15:02:01.547Z,100683.16
2023-05-04T15:04:29.336Z,100683.97
2023-05-04T15:06:57.311Z,100690.00
2023-05-04T15:09:25.069Z,100682.66
2023-05-04T15:11:52.902Z,100675.88
2023-05-04T15:14:21.253Z,100681.09
2023-05-04T15:16:48.855Z,100676.34
2023-05-04T15:19:17.920Z,100672.06
2023-05-04T15:21:46.047Z,100661.88
2023-05-04T15:24:13.812Z,100659.25
2023-05-04T15:26:41.539Z,100671.06
2023-05-04T15:29:09.279Z,100662.91
2023-05-04T15:31:37.259Z,100659.53
2023-05-04T15:34:05.119Z,100657.75
2023-05-04T15:36:34.263Z,100657.38
2023-05-04T15:39:02.070Z,100653.72
2023-05-04T15:41:30.933Z,100653.72
2023-05-04T15:43:58.654Z,100661.22
2023-05-04T15:46:26.693Z,100654.03
2023-05-04T15:48:54.621Z,100662.19
2023-05-04T15:51:22.393Z,100664.97
2023-05-04T15:53:51.786Z,100646.97
2023-05-04T15:56:19.613Z,100650.13
2023-05-04T15:58:47.369Z,100656.88
2023-05-04T16:01:15.183Z,100652.72
2023-05-04T16:03:44.167Z,100651.16
2023-05-04T16:06:12.747Z,100656.31
2023-05-04T16:08:40.517Z,100655.84
2023-05-04T16:11:09.750Z,100656.31
2023-05-04T16:13:37.752Z,100665.91
2023-05-04T16:16:06.316Z,100655.91
2023-05-04T16:18:33.871Z,100658.44
2023-05-04T16:21:01.585Z,100654.53
2023-05-04T16:23:29.357Z,100660.84
2023-05-04T16:25:57.084Z,100661.84
2023-05-04T16:28:26.197Z,100663.88
2023-05-04T16:30:53.978Z,100669.72
2023-05-04T16:33:21.781Z,100662.56
2023-05-04T16:35:49.502Z,100659.19
2023-05-04T16:38:19.390Z,100648.66
2023-05-04T16:40:47.216Z,100653.63
2023-05-04T16:43:14.954Z,100647.84
2023-05-04T16:45:44.109Z,100645.22
2023-05-04T16:48:11.957Z,100644.56
2023-05-04T16:50:39.725Z,100639.78
2023-05-04T16:53:07.492Z,100649.63
2023-05-04T16:55:36.971Z,100643.56
2023-05-04T16:58:04.729Z,100643.81
2023-05-04T17:00:32.678Z,100643.41
2023-05-04T17:03:01.827Z,100644.00
2023-05-04T17:05:29.670Z,100636.19
2023-05-04T17:07:57.485Z,100644.97
2023-05-04T17:10:25.861Z,100639.13
2023-05-04T17:12:54.304Z,100647.06
2023-05-04T17:15:22.245Z,100646.25
2023-05-04T17:17:50.110Z,100642.34
2023-05-04T17:20:19.767Z,100638.25
2023-05-04T17:22:47.849Z,100642.44
2023-05-04T17:25:15.676Z,100638.44
2023-05-04T17:27:44.856Z,100637.88
2023-05-04T17:30:14.128Z,100634.00
2023-05-04T17:32:41.960Z,100638.88
2023-05-04T17:35:23.366Z,100639.88
2023-05-04T17:37:58.596Z,100641.13
2023-05-04T17:40:27.232Z,100642.81
2023-05-04T17:42:55.484Z,100642.13
2023-05-04T17:45:23.384Z,100642.69
2023-05-04T17:47:51.889Z,100644.22
2023-05-04T17:50:20.114Z,100640.63
2023-05-04T17:52:53.831Z,100647.00
2023-05-04T17:55:23.561Z,100653.44
2023-05-04T17:57:51.886Z,100654.13
2023-05-04T18:00:20.244Z,100653.47
2023-05-04T18:02:48.217Z,100649.44
2023-05-04T18:05:16.281Z,100652.34
2023-05-04T18:07:44.050Z,100656.81
2023-05-04T18:10:13.370Z,100656.81
2023-05-04T18:12:41.226Z,100659.88
2023-05-04T18:15:10.317Z,100649.84
2023-05-04T18:17:38.815Z,100655.13
2023-05-04T18:20:08.990Z,100660.97
2023-05-04T18:22:37.075Z,100655.16
2023-05-04T18:25:05.304Z,100658.50
2023-05-04T18:27:35.014Z,100663.50
2023-05-04T18:30:03.391Z,100664.28
2023-05-04T18:32:31.241Z,100673.03
2023-05-04T18:34:59.160Z,100665.69
2023-05-04T18:37:27.022Z,100670.09
2023-05-04T18:39:55.025Z,100672.59
2023-05-04T18:42:22.728Z,100674.63
2023-05-04T18:44:53.367Z,100671.44
2023-05-04T18:47:21.206Z,100672.53
2023-05-04T18:49:51.040Z,100664.75
2023-05-04T18:52:18.929Z,100671.72
2023-05-04T18:54:47.191Z,100676.16
2023-05-04T18:57:15.109Z,100686.72
2023-05-04T18:59:42.943Z,100674.06
2023-05-04T19:02:12.655Z,100683.94
2023-05-04T19:04:40.500Z,100682.91
2023-05-04T19:07:09.857Z,100687.31
2023-05-04T19:09:37.848Z,100687.09
2023-05-04T19:12:06.111Z,100683.47
2023-05-04T19:14:34.183Z,100677.44
2023-05-04T19:17:02.300Z,100679.63
2023-05-04T19:19:31.891Z,100682.53
2023-05-04T19:21:59.733Z,100681.13
2023-05-04T19:24:27.552Z,100682.34
2023-05-04T19:26:56.008Z,100684.53
2023-05-04T19:29:23.794Z,100682.41
2023-05-04T19:31:51.559Z,100685.44
2023-05-04T19:34:19.285Z,100680.53
2023-05-04T19:36:48.468Z,100683.44
2023-05-04T19:39:16.981Z,100691.75
2023-05-04T19:41:44.806Z,100684.19
2023-05-04T19:44:12.610Z,100682.78
2023-05-04T19:46:40.984Z,100680.38
2023-05-04T19:49:08.868Z,100679.78
2023-05-04T19:51:36.708Z,100679.94
2023-05-04T19:54:08.723Z,100687.69
2023-05-04T19:56:37.636Z,100679.94
2023-05-04T19:59:05.427Z,100678.69
2023-05-04T20:01:33.321Z,100680.38
2023-05-04T20:04:01.066Z,100676.94
2023-05-04T20:06:28.838Z,100683.03
2023-05-04T20:08:56.577Z,100678.47
2023-05-04T20:11:25.961Z,100678.22
2023-05-04T20:13:55.589Z,100671.97
2023-05-04T20:16:23.646Z,100674.34
2023-05-04T20:18:51.428Z,100675.19
2023-05-04T20:21:19.566Z,100674.34
2023-05-04T20:23:47.364Z,100671.72
2023-05-04T20:26:15.308Z,100678.56
2023-05-04T20:28:44.482Z,100669.78
2023-05-04T20:31:12.262Z,100670.88
2023-05-04T20:33:40.122Z,100671.16
2023-05-04T20:36:09.575Z,100665.50
2023-05-04T20:38:37.300Z,100660.63
2023-05-04T20:41:11.288Z,100664.63
2023-05-04T20:43:39.167Z,100653.72
2023-05-04T20:46:08.451Z,100657.47
2023-05-04T20:48:36.343Z,100655.31
2023-05-04T20:53:41.321Z,100655.56
2023-05-04T20:56:09.072Z,100651.28
2023-05-04T20:58:36.875Z,100651.13
2023-05-04T21:01:05.374Z,100642.41
2023-05-04T21:03:34.689Z,100643.47
2023-05-04T21:06:02.924Z,100640.97
2023-05-04T21:08:30.731Z,100640.25
2023-05-04T21:10:58.742Z,100627.19
2023-05-04T21:13:26.566Z,100631.03
2023-05-04T21:15:54.348Z,100618.00
2023-05-04T21:18:22.176Z,100626.88
2023-05-04T21:20:51.312Z,100616.72
2023-05-04T21:23:19.102Z,100624.03
2023-05-04T21:25:46.914Z,100617.09
2023-05-04T21:28:14.665Z,100623.47
2023-05-04T21:30:43.476Z,100625.50
2023-05-04T21:33:11.254Z,100619.75
2023-05-04T21:35:38.996Z,100615.44
2023-05-04T21:38:08.127Z,100623.59
2023-05-04T21:40:36.129Z,100616.91
2023-05-04T21:43:03.882Z,100626.00
2023-05-04T21:45:32.062Z,100609.50
2023-05-04T21:48:02.275Z,100618.34
2023-05-04T21:50:30.943Z,100622.94
2023-05-04T21:52:58.653Z,100616.22
2023-05-04T21:55:27.786Z,100618.25
2023-05-04T21:57:56.114Z,100617.41
2023-05-04T22:00:24.312Z,100616.81
2023-05-04T22:02:54.719Z,100610.84
2023-05-04T22:05:23.198Z,100603.88
2023-05-04T22:07:51.110Z,100608.44
2023-05-04T22:10:19.010Z,100605.94
2023-05-04T22:12:48.351Z,100597.19
2023-05-04T22:15:16.400Z,100604.38
2023-05-04T22:17:44.200Z,100602.72
2023-05-04T22:20:13.497Z,100604.75
2023-05-04T22:22:41.317Z,100604.06
2023-05-04T22:25:09.832Z,100602.38
2023-05-04T22:27:37.533Z,100599.84
2023-05-04T22:30:08.775Z,100601.66
2023-05-04T22:32:36.755Z,100592.91
2023-05-04T22:35:04.888Z,100604.06
2023-05-04T22:37:32.665Z,100606.69
2023-05-04T22:40:00.936Z,100604.88
2023-05-04T22:42:29.039Z,100604.88
2023-05-04T22:44:56.826Z,100602.94
2023-05-04T22:47:26.897Z,100601.88
2023-05-04T22:49:55.500Z,100604.28
2023-05-04T22:52:23.546Z,100604.28
2023-05-04T22:54:51.362Z,100606.91
2023-05-04T22:57:19.520Z,100606.78
2023-05-04T22:59:47.224Z,100606.06
2023-05-04T23:02:15.215Z,100608.81
2023-05-04T23:04:44.735Z,100602.84
2023-05-04T23:07:12.512Z,100610.75
2023-05-04T23:09:43.053Z,100609.78
2023-05-04T23:12:10.841Z,100601.16
2023-05-04T23:14:38.789Z,100602.13
2023-05-04T23:17:06.623Z,100604.06
2023-05-04T23:19:34.656Z,100604.28
2023-05-04T23:22:03.850Z,100608.13
2023-05-04T23:24:31.640Z,100610.03
2023-05-04T23:26:59.789Z,100609.22
2023-05-04T23:29:27.532Z,100609.22
2023-05-04T23:31:55.315Z,100611.00
2023-05-04T23:34:23.219Z,100605.00
2023-05-04T23:36:50.960Z,100603.34
2023-05-04T23:39:20.150Z,100599.19
2023-05-04T23:41:48.135Z,100601.66
2023-05-04T23:44:16.440Z,100591.13
2023-05-04T23:46:44.285Z,100592.94
2023-05-04T23:49:11.987Z,100600.72
2023-05-04T23:51:39.766Z,100599.75
2023-05-04T23:54:07.518Z,100598.22
2023-05-04T23:56:39.008Z,100598.31
2023-05-04T23:59:06.787Z,100605.75
